Adjuster:

Genres

Foreign Language

1980-Present
Only overseas-produced features counted. Re-issues excluded.



Rows: #1-100, #101-200, #201-300, #301-400, #401-500, #501-600, #601-700, #701-800, #801-900, #901-1000, #1001-1100, #1101-1200, #1201-1300, #1301-1400, #1401-1500, #1501-1600, #1601-1700, #1701-1756
RowRankTitle (click to view)StudioLifetime Gross / TheatersOpening / TheatersDate
1 884 Days of Being Wild Kino $146,310 4 $18,090 1 11/19/04
2 929 Fear and Trembling CGld $126,684 3 $6,007 1 11/19/04
3 1109 You I Love
(Russia)
Pict. $60,815 4 $5,785 1 11/19/04
4 1009 Aitraaz Zee $91,998 24 n/a - 11/12/04
5 1249 La Petite Lili FRun $34,634 1 $5,558 1 11/12/04
6 1413 Who Killed Bambi? Strand $14,532 1 $1,998 1 11/12/04
7 1586 Bright Future Palm $5,166 1 $2,755 1 11/12/04
8 129 Veer Zaara
(India)
Yash $2,938,532 88 $843,010 88 11/11/04
9 994 Bear Cub TLA $100,133 4 $8,002 1 11/5/04
10 1685 800 Bullets TLA $866 2 $866 2 10/29/04
11 1215 Sex is Comedy
(France)
IFC $40,470 4 $3,370 1 10/20/04
12 768 Moolaade NYer $215,646 4 $11,982 2 10/15/04
13 1098 Untold Scandal
(South Korea)
Kino $63,332 8 $6,015 4 10/13/04
14 1081 Vodka Lemon NYer $66,361 3 $9,303 2 10/8/04
15 1545 Silent Waters FRun $7,384 1 $1,617 1 10/8/04
16 1642 The Child I Never Was Strand $2,609 1 $1,617 1 10/8/04
17 12 The Motorcycle Diaries
(Argentina)
Focus $16,781,387 272 $159,819 3 9/24/04
18 836 Infernal Affairs Mira. $169,659 5 $25,680 5 9/24/04
19 1251 Anatomy of Hell Tar. $34,506 3 $4,255 2 9/24/04
20 652 Zelary
(Czech)
SPC $330,033 21 $29,002 6 9/17/04
21 1244 Goodbye, Dragon Inn Wells $35,120 3 $5,322 1 9/17/04
22 326 Tae Guk Gi: The Brotherhood of War IDP $1,111,061 34 $260,135 29 9/3/04
23 755 Remember Me, My Love IDP $227,986 7 $15,378 2 9/3/04
24 1030 Warriors of Heaven and Earth SPC $82,936 9 $13,721 4 9/3/04
25 1433 Yes Nurse, No Nurse Reg. $13,325 2 $5,324 1 9/3/04
26 3 Hero
(China)
Mira. $53,710,019 2,175 $18,004,319 2,031 8/27/04
27 735 Dhoom
(India)
Yash $245,756 32 $102,860 32 8/27/04
28 471 Red Lights Wells $673,828 29 $3,202 1 8/20/04
29 973 Almost Peaceful Emp. $106,184 3 $10,020 1 8/20/04
30 1390 It's Easier for a Camel NYer $16,150 1 $5,281 1 8/20/04
31 645 Kyon? Ho Gaya Pyu Eros $336,909 51 $171,966 51 8/13/04
32 1694 Anatomy 2 Strand $623 1 $383 1 8/13/04
33 1261 Last Life in the Universe Palm $32,014 4 $5,833 1 8/6/04
34 1314 Bang Rajan Magn. $24,629 4 $4,354 1 8/6/04
35 1645 The Other World Artma $2,494 1 $1,119 1 8/6/04
36 180 Intimate Strangers
(France)
ParC $2,110,589 94 $55,836 5 7/30/04
37 442 Rosenstrasse IDP $734,519 24 n/a - 7/30/04
38 1104 Proteus Strand $62,031 3 $10,047 2 7/30/04
39 1122 Gozu Path. $58,202 4 $5,030 1 7/30/04
40 1139 RRRrrrr!!! Chri. $54,361 23 $54,361 23 7/30/04
41 1380 Transfixed Pict. $17,361 1 $4,268 1 7/30/04
42 1699 Tasuma: The Fighter Artma $479 1 $281 1 7/30/04
43 323 Zatoichi: The Blind Swordsman
(Japan)
Mira. $1,118,163 55 $61,104 4 7/23/04
44 656 Ju-On: The Grudge
(Japan)
Vita. $325,680 11 $25,446 3 7/23/04
45 1362 Asambhav Eros $19,504 15 $19,504 15 7/23/04
46 1665 Free Radicals Kino $1,443 1 $1,443 1 7/23/04
47 49 Maria Full of Grace FL $6,529,624 127 $139,066 7 7/16/04
48 893 Zhou Yu's Train SPC $142,562 12 $22,933 6 7/16/04
49 1079 The Inheritance CGld $68,215 2 $3,270 1 7/9/04
50 970 Bonjour M. Shlomi Strand $107,585 6 $5,999 3 7/2/04
51 1055 Deserted Station FRun $74,791 1 $841 1 7/2/04
52 1661 The Road to Love Arab $1,714 1 $867 1 6/30/04
53 962 Deewaar Eros $111,423 41 $111,423 41 6/25/04
54 434 Lakshya UTV $753,600 59 $380,000 59 6/18/04
55 534 Facing Windows SPC $543,354 27 $36,061 7 6/18/04
56 1221 Father and Son Wells $39,291 3 $4,541 1 6/18/04
57 1027 Dev Eros $84,728 35 $84,728 35 6/11/04
58 418 Hum Tum Yash $796,641 43 $275,882 43 5/28/04
59 562 Strayed
(France)
Wells $482,757 29 $19,531 2 5/14/04
60 704 Valentin Mira. $275,968 15 $14,048 2 5/7/04
61 222 Main Hoon Na
(India)
Eros $1,747,060 79 $704,651 79 4/30/04
62 525 Twilight Samurai
(Japan)
Emp. $559,765 16 $8,573 1 4/23/04
63 240 I'm Not Scared
(Italy)
Mira. $1,615,328 63 $48,292 4 4/9/04
64 157 Spring, Summer, Fall, Winter... and Spring SPC $2,380,788 74 $42,561 6 4/2/04
65 558 Shaolin Soccer
(Hong Kong)
Mira. $489,600 14 $39,167 6 4/2/04
66 1508 I'll Sing for You FRun $9,425 1 $1,225 1 3/26/04
67 150 Bon Voyage SPC $2,503,286 94 $27,480 1 3/19/04
68 1002 Distant NYer $96,293 2 $11,280 2 3/12/04
69 1218 La Vie Promise
(France)
Emp. $40,029 2 $6,761 1 3/5/04
70 92 Good Bye, Lenin!
(Germany)
SPC $4,064,200 125 $57,968 6 2/27/04
71 1626 Abouna Leis. $3,290 1 $2,350 1 2/20/04
72 1062 The Seagull's Laughter CGld $72,527 3 $7,791 2 2/13/04
73 1300 After the Life: Trilogy 3 Magn. $27,256 3 $5,198 1 2/13/04
74 294 Osama UA $1,270,904 35 $51,969 4 2/6/04
75 1180 An Amazing Couple: Trilogy 2 Magn. $47,806 2 $8,572 1 2/6/04
76 1086 On the Run: Trilogy 1 Magn. $65,172 4 $8,653 1 1/30/04
77 1407 Millennium Mambo Palm $14,904 1 $4,619 1 12/31/03
78 787 Postmen in the Mountains Shad. $203,975 7 $2,334 1 12/25/03
79 968 Il Cuore Altrove Ode. $108,954 8 $20,107 8 12/19/03
80 1171 Munnabhai Mbbs Eros $48,772 17 $48,772 17 12/19/03
81 134 Monsieur Ibrahim
(France)
SPC $2,823,890 92 $53,174 7 12/3/03
82 201 Nez Rouge Chri. $2,004,814 90 $217,000 32 11/28/03
83 203 Kal Ho Naa Ho Yash $1,991,922 52 $758,211 52 11/26/03
84 1506 El Bonaerense Men. $9,470 1 $5,550 1 11/26/03
85 1672 El Leyton Cn4 $1,332 1 $1,332 1 11/21/03
86 1144 Hukkle Shad. $53,715 4 $2,104 1 11/14/03
87 1456 Love Forbidden Strand $11,421 1 $4,075 1 11/7/03
88 151 Bon Voyage (Canada) TVA $2,503,286 16 $38,682 16 10/17/03
89 816 The Flower of Evil Palm $182,163 16 $12,419 2 10/10/03
90 1072 Small Voices Sml.Isld $69,739 6 $15,166 6 10/10/03
91 198 Sur le Seuil Ode. $2,014,071 61 $514,762 61 10/3/03
92 338 Baghban Eros $1,058,803 50 $345,041 50 10/3/03
93 1050 So Close Strand $76,584 11 $31,702 11 9/12/03
94 759 Kuch Naa Kaho Eros $224,831 32 $92,197 32 9/5/03
95 954 The Other Side of the Bed Sun. $113,543 10 $41,597 10 8/29/03
96 1003 Autumn Spring First $96,269 5 $10,046 2 8/22/03
97 1045 Don't Tempt Me First $77,858 5 $15,271 3 8/22/03
98 1474 Rana's Wedding Arab $10,604 1 $3,099 1 8/22/03
99 600 Hawayein Meg. $409,978 5 $37,812 5 8/15/03
100 472 Koi... Mil Gaya Yash $671,372 55 $274,851 55 8/8/03
TOTAL (All Movies):$1,823,571,968----
AVERAGE (All Movies):$1,072,68945$128,72825-
TOTAL
(Wide Releases Only):
$444,621,727----
AVERAGE
(Wide Releases Only):
$26,154,2191,313$8,308,2201,585-
Rows: #1-100, #101-200, #201-300, #301-400, #401-500, #501-600, #601-700, #701-800, #801-900, #901-1000, #1001-1100, #1101-1200, #1201-1300, #1301-1400, #1401-1500, #1501-1600, #1601-1700, #1701-1756


If there are any movies that you think should be on this list, e-mail us at mail@boxofficemojo.com.




UPCOMING RELEASES
Title (click to view)StudioRelease Date
Fida RBF 8/20/04
Coming Home (2015) SPC 2015
Girlhood (2015) Strand 1/30/15
Running Man (2015) CL 1/30/15
Somewhere Only We Know CL 2/13/15
Wild Tales SPC 2/20/15
Futuro Beach Strand 2/27/15
Eastern Boys FRun 2/27/15
The Mafia Only Kills in Summer Distrib. 3/6/15
Eva Wein. 3/13/15
Cupcakes Strand 3/20/15
White God Magn. 3/27/15
Saint Laurent SPC 5/8/15
Johanna
(Hungary)
Tar. TBD
Happy New Year (2014) N/A TBD
Jolly LLB FIP TBD
Abel LGF TBD
When a Wolf Falls in Love with a Sheep N/A TBD